Terminal Aerodrome Forecast
Issued by NWS

Current Version | Previous Version | Text Only | Print | Product List | Glossary On
Versions: 1 2 3 4 5 6 7 8 9 10 11 12 13 14 15 16
000
FTUS45 KVEF 212200 AAA
TAFDAG
TAF AMD
KDAG 212214Z 2122/2218 06006KT P6SM VCTS BKN100CB
     FM212300 09010KT P6SM VCTS BKN090CB
      TEMPO 2123/2201 VRB20G30KT -TSRA
     FM220400 25011KT P6SM FEW110=

USA.gov is the U.S. government's official web portal to all federal, state and local government web resources and services.